sensor_id;sensor_type;location;lat;lon;timestamp;P1;durP1;ratioP1;P2;durP2;ratioP2
15833;SDS011;8017;50.812;4.934;2022-07-19T00:00:19;12.10;;;3.47;;
15833;SDS011;8017;50.812;4.934;2022-07-19T00:03:23;10.57;;;3.30;;
15833;SDS011;8017;50.812;4.934;2022-07-19T00:06:25;8.10;;;3.20;;
15833;SDS011;8017;50.812;4.934;2022-07-19T00:09:29;9.83;;;3.33;;
15833;SDS011;8017;50.812;4.934;2022-07-19T00:12:31;8.90;;;3.17;;
15833;SDS011;8017;50.812;4.934;2022-07-19T00:15:33;6.83;;;3.50;;
15833;SDS011;8017;50.812;4.934;2022-07-19T00:18:34;7.30;;;4.03;;
15833;SDS011;8017;50.812;4.934;2022-07-19T00:21:36;7.50;;;4.10;;
15833;SDS011;8017;50.812;4.934;2022-07-19T00:24:40;9.60;;;4.67;;
15833;SDS011;8017;50.812;4.934;2022-07-19T00:27:42;9.17;;;4.27;;
15833;SDS011;8017;50.812;4.934;2022-07-19T00:30:44;10.43;;;3.67;;
15833;SDS011;8017;50.812;4.934;2022-07-19T00:33:46;11.10;;;3.60;;
15833;SDS011;8017;50.812;4.934;2022-07-19T00:36:47;12.50;;;4.07;;
15833;SDS011;8017;50.812;4.934;2022-07-19T00:39:51;6.40;;;3.63;;
15833;SDS011;8017;50.812;4.934;2022-07-19T00:42:53;9.43;;;3.70;;
15833;SDS011;8017;50.812;4.934;2022-07-19T00:45:55;8.97;;;3.10;;
15833;SDS011;8017;50.812;4.934;2022-07-19T00:48:57;7.83;;;3.57;;
15833;SDS011;8017;50.812;4.934;2022-07-19T00:51:59;10.23;;;3.70;;
15833;SDS011;8017;50.812;4.934;2022-07-19T00:55:04;5.57;;;3.47;;
15833;SDS011;8017;50.812;4.934;2022-07-19T00:58:08;9.13;;;3.77;;
15833;SDS011;8017;50.812;4.934;2022-07-19T01:01:11;9.90;;;3.80;;
15833;SDS011;8017;50.812;4.934;2022-07-19T01:04:13;7.70;;;4.00;;
15833;SDS011;8017;50.812;4.934;2022-07-19T01:07:16;6.97;;;4.20;;
15833;SDS011;8017;50.812;4.934;2022-07-19T01:10:19;7.47;;;3.90;;
15833;SDS011;8017;50.812;4.934;2022-07-19T01:13:21;11.60;;;4.20;;
15833;SDS011;8017;50.812;4.934;2022-07-19T01:16:24;7.43;;;3.70;;
15833;SDS011;8017;50.812;4.934;2022-07-19T01:19:25;13.03;;;4.00;;
15833;SDS011;8017;50.812;4.934;2022-07-19T01:22:29;5.90;;;3.50;;
15833;SDS011;8017;50.812;4.934;2022-07-19T01:25:35;6.73;;;3.40;;
15833;SDS011;8017;50.812;4.934;2022-07-19T01:28:38;6.80;;;3.40;;
15833;SDS011;8017;50.812;4.934;2022-07-19T01:31:40;7.20;;;4.10;;
15833;SDS011;8017;50.812;4.934;2022-07-19T01:34:42;8.57;;;3.70;;
15833;SDS011;8017;50.812;4.934;2022-07-19T01:37:45;9.00;;;4.10;;
15833;SDS011;8017;50.812;4.934;2022-07-19T01:40:49;7.63;;;3.63;;
15833;SDS011;8017;50.812;4.934;2022-07-19T01:43:51;7.27;;;3.43;;
15833;SDS011;8017;50.812;4.934;2022-07-19T01:46:53;6.87;;;3.93;;
15833;SDS011;8017;50.812;4.934;2022-07-19T01:49:54;8.97;;;4.13;;
15833;SDS011;8017;50.812;4.934;2022-07-19T01:52:58;8.50;;;3.63;;
15833;SDS011;8017;50.812;4.934;2022-07-19T01:56:03;11.70;;;3.83;;
15833;SDS011;8017;50.812;4.934;2022-07-19T01:59:05;9.33;;;3.77;;
15833;SDS011;8017;50.812;4.934;2022-07-19T02:02:07;12.07;;;3.40;;
15833;SDS011;8017;50.812;4.934;2022-07-19T02:05:09;9.00;;;3.77;;
15833;SDS011;8017;50.812;4.934;2022-07-19T02:08:13;12.67;;;4.00;;
15833;SDS011;8017;50.812;4.934;2022-07-19T02:11:14;11.60;;;3.90;;
15833;SDS011;8017;50.812;4.934;2022-07-19T02:14:34;6.67;;;3.53;;
15833;SDS011;8017;50.812;4.934;2022-07-19T02:17:36;8.07;;;4.00;;
15833;SDS011;8017;50.812;4.934;2022-07-19T02:20:38;6.90;;;3.20;;
15833;SDS011;8017;50.812;4.934;2022-07-19T02:23:41;6.87;;;3.70;;
15833;SDS011;8017;50.812;4.934;2022-07-19T02:26:43;6.97;;;3.50;;
15833;SDS011;8017;50.812;4.934;2022-07-19T02:29:45;7.63;;;3.73;;
15833;SDS011;8017;50.812;4.934;2022-07-19T02:32:48;7.90;;;3.67;;
15833;SDS011;8017;50.812;4.934;2022-07-19T02:35:50;10.20;;;3.60;;
15833;SDS011;8017;50.812;4.934;2022-07-19T02:38:53;10.20;;;3.63;;
15833;SDS011;8017;50.812;4.934;2022-07-19T02:41:56;9.20;;;3.87;;
15833;SDS011;8017;50.812;4.934;2022-07-19T02:44:58;8.67;;;3.70;;
15833;SDS011;8017;50.812;4.934;2022-07-19T02:47:59;8.97;;;3.47;;
15833;SDS011;8017;50.812;4.934;2022-07-19T02:51:04;11.37;;;3.90;;
15833;SDS011;8017;50.812;4.934;2022-07-19T02:54:12;10.10;;;4.20;;
15833;SDS011;8017;50.812;4.934;2022-07-19T02:57:14;10.07;;;4.17;;
15833;SDS011;8017;50.812;4.934;2022-07-19T03:00:16;11.13;;;4.20;;
15833;SDS011;8017;50.812;4.934;2022-07-19T03:03:17;15.83;;;5.37;;
15833;SDS011;8017;50.812;4.934;2022-07-19T03:06:33;11.43;;;5.63;;
15833;SDS011;8017;50.812;4.934;2022-07-19T03:09:36;13.93;;;6.60;;
15833;SDS011;8017;50.812;4.934;2022-07-19T03:12:38;16.93;;;5.87;;
15833;SDS011;8017;50.812;4.934;2022-07-19T03:15:40;13.97;;;5.80;;
15833;SDS011;8017;50.812;4.934;2022-07-19T03:18:42;9.57;;;4.63;;
15833;SDS011;8017;50.812;4.934;2022-07-19T03:21:44;14.47;;;4.93;;
15833;SDS011;8017;50.812;4.934;2022-07-19T03:24:47;13.47;;;4.90;;
15833;SDS011;8017;50.812;4.934;2022-07-19T03:27:49;11.73;;;4.77;;
15833;SDS011;8017;50.812;4.934;2022-07-19T03:30:51;11.00;;;4.53;;
15833;SDS011;8017;50.812;4.934;2022-07-19T03:33:53;7.50;;;4.77;;
15833;SDS011;8017;50.812;4.934;2022-07-19T03:36:55;10.17;;;4.90;;
15833;SDS011;8017;50.812;4.934;2022-07-19T03:39:58;10.37;;;5.40;;
15833;SDS011;8017;50.812;4.934;2022-07-19T03:43:00;13.40;;;6.13;;
15833;SDS011;8017;50.812;4.934;2022-07-19T03:46:02;16.67;;;5.73;;
15833;SDS011;8017;50.812;4.934;2022-07-19T03:49:04;13.20;;;7.20;;
15833;SDS011;8017;50.812;4.934;2022-07-19T03:52:06;15.17;;;9.57;;
15833;SDS011;8017;50.812;4.934;2022-07-19T03:55:10;16.73;;;8.67;;
15833;SDS011;8017;50.812;4.934;2022-07-19T03:58:11;16.10;;;7.83;;
15833;SDS011;8017;50.812;4.934;2022-07-19T04:01:13;17.77;;;7.53;;
15833;SDS011;8017;50.812;4.934;2022-07-19T04:04:16;14.63;;;7.17;;
15833;SDS011;8017;50.812;4.934;2022-07-19T04:07:18;12.30;;;6.20;;
15833;SDS011;8017;50.812;4.934;2022-07-19T04:10:21;10.77;;;5.67;;
15833;SDS011;8017;50.812;4.934;2022-07-19T04:13:23;11.97;;;5.80;;
15833;SDS011;8017;50.812;4.934;2022-07-19T04:16:25;14.27;;;5.67;;
15833;SDS011;8017;50.812;4.934;2022-07-19T04:19:29;10.20;;;4.77;;
15833;SDS011;8017;50.812;4.934;2022-07-19T04:22:31;13.90;;;4.73;;
15833;SDS011;8017;50.812;4.934;2022-07-19T04:25:34;18.63;;;4.90;;
15833;SDS011;8017;50.812;4.934;2022-07-19T04:28:36;15.47;;;4.20;;
15833;SDS011;8017;50.812;4.934;2022-07-19T04:31:38;20.33;;;4.60;;
15833;SDS011;8017;50.812;4.934;2022-07-19T04:34:41;21.33;;;4.17;;
15833;SDS011;8017;50.812;4.934;2022-07-19T04:37:43;19.30;;;4.70;;
15833;SDS011;8017;50.812;4.934;2022-07-19T04:40:46;27.07;;;4.07;;
15833;SDS011;8017;50.812;4.934;2022-07-19T04:43:48;20.33;;;4.87;;
15833;SDS011;8017;50.812;4.934;2022-07-19T04:46:50;14.53;;;3.90;;
15833;SDS011;8017;50.812;4.934;2022-07-19T04:49:52;14.77;;;3.63;;
15833;SDS011;8017;50.812;4.934;2022-07-19T04:52:54;8.23;;;2.93;;
15833;SDS011;8017;50.812;4.934;2022-07-19T04:55:57;11.80;;;3.93;;
15833;SDS011;8017;50.812;4.934;2022-07-19T04:58:59;16.33;;;4.03;;
15833;SDS011;8017;50.812;4.934;2022-07-19T05:02:01;8.30;;;3.20;;
15833;SDS011;8017;50.812;4.934;2022-07-19T05:05:03;9.40;;;3.20;;
15833;SDS011;8017;50.812;4.934;2022-07-19T05:08:06;8.50;;;2.80;;
15833;SDS011;8017;50.812;4.934;2022-07-19T05:11:09;3.70;;;2.40;;
15833;SDS011;8017;50.812;4.934;2022-07-19T05:14:11;6.07;;;2.70;;
15833;SDS011;8017;50.812;4.934;2022-07-19T05:17:13;6.03;;;2.20;;
15833;SDS011;8017;50.812;4.934;2022-07-19T05:20:15;4.87;;;2.90;;
15833;SDS011;8017;50.812;4.934;2022-07-19T05:23:17;5.93;;;2.57;;
15833;SDS011;8017;50.812;4.934;2022-07-19T05:26:20;5.93;;;2.40;;
15833;SDS011;8017;50.812;4.934;2022-07-19T05:29:22;5.97;;;2.53;;
15833;SDS011;8017;50.812;4.934;2022-07-19T05:32:24;5.33;;;2.90;;
15833;SDS011;8017;50.812;4.934;2022-07-19T05:35:26;6.83;;;2.70;;
15833;SDS011;8017;50.812;4.934;2022-07-19T05:38:28;6.30;;;2.27;;
15833;SDS011;8017;50.812;4.934;2022-07-19T05:41:35;7.83;;;2.67;;
15833;SDS011;8017;50.812;4.934;2022-07-19T05:44:37;6.80;;;2.70;;
15833;SDS011;8017;50.812;4.934;2022-07-19T05:47:39;7.50;;;2.50;;
15833;SDS011;8017;50.812;4.934;2022-07-19T05:50:44;9.93;;;3.30;;
15833;SDS011;8017;50.812;4.934;2022-07-19T05:53:46;10.30;;;2.80;;
15833;SDS011;8017;50.812;4.934;2022-07-19T05:56:49;9.07;;;2.90;;
15833;SDS011;8017;50.812;4.934;2022-07-19T05:59:51;8.73;;;2.70;;
15833;SDS011;8017;50.812;4.934;2022-07-19T06:02:53;16.13;;;3.80;;
15833;SDS011;8017;50.812;4.934;2022-07-19T06:05:55;16.57;;;4.13;;
15833;SDS011;8017;50.812;4.934;2022-07-19T06:08:58;18.23;;;3.77;;
15833;SDS011;8017;50.812;4.934;2022-07-19T06:12:02;13.07;;;3.33;;
15833;SDS011;8017;50.812;4.934;2022-07-19T06:15:04;11.53;;;3.40;;
15833;SDS011;8017;50.812;4.934;2022-07-19T06:18:07;14.70;;;3.33;;
15833;SDS011;8017;50.812;4.934;2022-07-19T06:21:09;18.63;;;3.53;;
15833;SDS011;8017;50.812;4.934;2022-07-19T06:24:13;11.27;;;3.47;;
15833;SDS011;8017;50.812;4.934;2022-07-19T06:27:16;15.33;;;3.50;;
15833;SDS011;8017;50.812;4.934;2022-07-19T06:30:18;18.00;;;3.27;;
15833;SDS011;8017;50.812;4.934;2022-07-19T06:33:20;16.83;;;3.60;;
15833;SDS011;8017;50.812;4.934;2022-07-19T06:36:22;20.07;;;3.27;;
15833;SDS011;8017;50.812;4.934;2022-07-19T06:39:24;16.10;;;3.43;;
15833;SDS011;8017;50.812;4.934;2022-07-19T06:42:27;20.37;;;3.20;;
15833;SDS011;8017;50.812;4.934;2022-07-19T06:45:29;18.87;;;3.50;;
15833;SDS011;8017;50.812;4.934;2022-07-19T06:48:32;19.33;;;3.73;;
15833;SDS011;8017;50.812;4.934;2022-07-19T06:51:34;14.13;;;2.97;;
15833;SDS011;8017;50.812;4.934;2022-07-19T06:54:36;9.67;;;2.87;;
15833;SDS011;8017;50.812;4.934;2022-07-19T06:57:39;18.37;;;3.50;;
15833;SDS011;8017;50.812;4.934;2022-07-19T07:00:41;16.43;;;3.03;;
15833;SDS011;8017;50.812;4.934;2022-07-19T07:03:43;14.10;;;3.40;;
15833;SDS011;8017;50.812;4.934;2022-07-19T07:06:46;20.40;;;3.53;;
15833;SDS011;8017;50.812;4.934;2022-07-19T07:09:48;16.33;;;3.30;;
15833;SDS011;8017;50.812;4.934;2022-07-19T07:12:51;13.23;;;2.70;;
15833;SDS011;8017;50.812;4.934;2022-07-19T07:15:53;7.97;;;2.53;;
15833;SDS011;8017;50.812;4.934;2022-07-19T07:18:55;7.07;;;2.73;;
15833;SDS011;8017;50.812;4.934;2022-07-19T07:21:56;7.60;;;2.67;;
15833;SDS011;8017;50.812;4.934;2022-07-19T07:25:00;10.30;;;2.20;;
15833;SDS011;8017;50.812;4.934;2022-07-19T07:28:03;11.67;;;2.70;;
15833;SDS011;8017;50.812;4.934;2022-07-19T07:31:06;10.67;;;2.67;;
15833;SDS011;8017;50.812;4.934;2022-07-19T07:34:08;3.83;;;2.28;;
15833;SDS011;8017;50.812;4.934;2022-07-19T07:37:09;5.97;;;2.20;;
15833;SDS011;8017;50.812;4.934;2022-07-19T07:40:11;6.60;;;2.20;;
15833;SDS011;8017;50.812;4.934;2022-07-19T07:43:15;6.32;;;1.90;;
15833;SDS011;8017;50.812;4.934;2022-07-19T07:46:17;8.30;;;2.47;;
15833;SDS011;8017;50.812;4.934;2022-07-19T07:49:19;6.82;;;1.92;;
15833;SDS011;8017;50.812;4.934;2022-07-19T07:52:21;5.13;;;2.10;;
15833;SDS011;8017;50.812;4.934;2022-07-19T07:55:23;6.18;;;2.08;;
15833;SDS011;8017;50.812;4.934;2022-07-19T07:58:26;4.70;;;2.28;;
15833;SDS011;8017;50.812;4.934;2022-07-19T08:01:28;7.57;;;2.03;;
15833;SDS011;8017;50.812;4.934;2022-07-19T08:04:30;6.03;;;2.38;;
15833;SDS011;8017;50.812;4.934;2022-07-19T08:07:33;6.35;;;2.28;;
15833;SDS011;8017;50.812;4.934;2022-07-19T08:10:34;7.97;;;2.35;;
15833;SDS011;8017;50.812;4.934;2022-07-19T08:13:38;10.77;;;2.30;;
15833;SDS011;8017;50.812;4.934;2022-07-19T08:16:40;6.10;;;2.40;;
15833;SDS011;8017;50.812;4.934;2022-07-19T08:19:42;5.47;;;2.25;;
15833;SDS011;8017;50.812;4.934;2022-07-19T08:22:44;7.35;;;2.20;;
15833;SDS011;8017;50.812;4.934;2022-07-19T08:25:46;7.05;;;2.45;;
15833;SDS011;8017;50.812;4.934;2022-07-19T08:28:50;10.10;;;2.50;;
15833;SDS011;8017;50.812;4.934;2022-07-19T08:31:52;4.32;;;1.95;;
15833;SDS011;8017;50.812;4.934;2022-07-19T08:34:54;10.40;;;2.78;;
15833;SDS011;8017;50.812;4.934;2022-07-19T08:37:56;5.03;;;2.40;;
15833;SDS011;8017;50.812;4.934;2022-07-19T08:40:58;10.57;;;2.63;;
15833;SDS011;8017;50.812;4.934;2022-07-19T08:44:04;7.60;;;2.28;;
15833;SDS011;8017;50.812;4.934;2022-07-19T08:47:06;19.60;;;3.42;;
15833;SDS011;8017;50.812;4.934;2022-07-19T08:50:09;8.75;;;3.50;;
15833;SDS011;8017;50.812;4.934;2022-07-19T08:53:12;6.22;;;2.33;;
15833;SDS011;8017;50.812;4.934;2022-07-19T08:56:15;8.90;;;2.17;;
15833;SDS011;8017;50.812;4.934;2022-07-19T08:59:39;6.43;;;2.30;;
15833;SDS011;8017;50.812;4.934;2022-07-19T09:02:50;7.25;;;2.45;;
15833;SDS011;8017;50.812;4.934;2022-07-19T09:06:02;8.65;;;2.00;;
15833;SDS011;8017;50.812;4.934;2022-07-19T09:09:05;5.82;;;2.30;;
15833;SDS011;8017;50.812;4.934;2022-07-19T09:12:07;5.07;;;2.28;;
15833;SDS011;8017;50.812;4.934;2022-07-19T09:15:10;6.03;;;2.25;;
15833;SDS011;8017;50.812;4.934;2022-07-19T09:18:14;4.60;;;1.92;;
15833;SDS011;8017;50.812;4.934;2022-07-19T09:21:17;5.03;;;1.73;;
15833;SDS011;8017;50.812;4.934;2022-07-19T09:24:19;4.68;;;2.40;;
15833;SDS011;8017;50.812;4.934;2022-07-19T09:27:22;4.03;;;1.80;;
15833;SDS011;8017;50.812;4.934;2022-07-19T09:30:33;7.85;;;2.20;;
15833;SDS011;8017;50.812;4.934;2022-07-19T09:33:38;6.22;;;2.10;;
15833;SDS011;8017;50.812;4.934;2022-07-19T09:36:46;6.78;;;1.95;;
15833;SDS011;8017;50.812;4.934;2022-07-19T09:39:49;10.15;;;2.55;;
15833;SDS011;8017;50.812;4.934;2022-07-19T09:42:52;5.35;;;2.13;;
15833;SDS011;8017;50.812;4.934;2022-07-19T09:45:58;4.15;;;2.38;;
15833;SDS011;8017;50.812;4.934;2022-07-19T09:49:04;6.63;;;2.45;;
15833;SDS011;8017;50.812;4.934;2022-07-19T09:52:07;8.77;;;2.15;;
15833;SDS011;8017;50.812;4.934;2022-07-19T09:55:10;4.43;;;2.30;;
15833;SDS011;8017;50.812;4.934;2022-07-19T09:58:13;9.18;;;2.22;;
15833;SDS011;8017;50.812;4.934;2022-07-19T10:01:18;4.78;;;2.10;;
15833;SDS011;8017;50.812;4.934;2022-07-19T10:04:21;7.18;;;1.90;;
15833;SDS011;8017;50.812;4.934;2022-07-19T10:07:23;3.40;;;1.80;;
15833;SDS011;8017;50.812;4.934;2022-07-19T10:10:25;4.60;;;1.92;;
15833;SDS011;8017;50.812;4.934;2022-07-19T10:13:30;3.97;;;1.73;;
15833;SDS011;8017;50.812;4.934;2022-07-19T10:16:38;8.23;;;2.03;;
15833;SDS011;8017;50.812;4.934;2022-07-19T10:19:50;8.70;;;1.80;;
15833;SDS011;8017;50.812;4.934;2022-07-19T10:22:52;4.13;;;1.70;;
15833;SDS011;8017;50.812;4.934;2022-07-19T10:25:54;6.60;;;2.40;;
15833;SDS011;8017;50.812;4.934;2022-07-19T10:29:05;3.80;;;1.85;;
15833;SDS011;8017;50.812;4.934;2022-07-19T10:32:11;5.65;;;1.98;;
15833;SDS011;8017;50.812;4.934;2022-07-19T10:35:14;8.82;;;2.47;;
15833;SDS011;8017;50.812;4.934;2022-07-19T10:38:17;4.05;;;1.88;;
15833;SDS011;8017;50.812;4.934;2022-07-19T10:41:25;5.15;;;2.00;;
15833;SDS011;8017;50.812;4.934;2022-07-19T10:44:27;3.22;;;1.70;;
15833;SDS011;8017;50.812;4.934;2022-07-19T10:51:00;5.07;;;1.77;;
15833;SDS011;8017;50.812;4.934;2022-07-19T10:54:03;7.05;;;2.05;;
15833;SDS011;8017;50.812;4.934;2022-07-19T10:57:10;4.45;;;1.90;;
15833;SDS011;8017;50.812;4.934;2022-07-19T11:00:15;4.05;;;1.52;;
15833;SDS011;8017;50.812;4.934;2022-07-19T11:03:29;3.53;;;2.20;;
15833;SDS011;8017;50.812;4.934;2022-07-19T11:06:31;7.40;;;1.88;;
15833;SDS011;8017;50.812;4.934;2022-07-19T11:09:38;7.80;;;2.10;;
15833;SDS011;8017;50.812;4.934;2022-07-19T11:12:41;6.40;;;2.28;;
15833;SDS011;8017;50.812;4.934;2022-07-19T11:15:53;2.83;;;1.77;;
15833;SDS011;8017;50.812;4.934;2022-07-19T11:19:02;9.45;;;2.15;;
15833;SDS011;8017;50.812;4.934;2022-07-19T11:22:05;6.60;;;1.98;;
15833;SDS011;8017;50.812;4.934;2022-07-19T11:25:07;4.22;;;1.83;;
15833;SDS011;8017;50.812;4.934;2022-07-19T11:28:18;3.60;;;1.67;;
15833;SDS011;8017;50.812;4.934;2022-07-19T11:31:22;3.45;;;1.80;;
15833;SDS011;8017;50.812;4.934;2022-07-19T11:34:26;4.82;;;2.15;;
15833;SDS011;8017;50.812;4.934;2022-07-19T11:37:29;6.57;;;1.67;;
15833;SDS011;8017;50.812;4.934;2022-07-19T11:40:34;6.20;;;1.90;;
15833;SDS011;8017;50.812;4.934;2022-07-19T11:43:37;3.38;;;1.70;;
15833;SDS011;8017;50.812;4.934;2022-07-19T11:46:40;5.20;;;1.45;;
15833;SDS011;8017;50.812;4.934;2022-07-19T11:49:43;4.72;;;1.88;;
15833;SDS011;8017;50.812;4.934;2022-07-19T11:52:46;4.63;;;2.00;;
15833;SDS011;8017;50.812;4.934;2022-07-19T11:55:49;6.35;;;2.47;;
15833;SDS011;8017;50.812;4.934;2022-07-19T11:58:51;5.40;;;2.03;;
15833;SDS011;8017;50.812;4.934;2022-07-19T12:01:54;4.53;;;1.85;;
15833;SDS011;8017;50.812;4.934;2022-07-19T12:04:59;6.72;;;2.17;;
15833;SDS011;8017;50.812;4.934;2022-07-19T12:08:09;4.95;;;1.90;;
15833;SDS011;8017;50.812;4.934;2022-07-19T12:11:15;3.78;;;1.98;;
15833;SDS011;8017;50.812;4.934;2022-07-19T12:14:19;3.45;;;1.83;;
15833;SDS011;8017;50.812;4.934;2022-07-19T12:17:22;6.10;;;1.65;;
15833;SDS011;8017;50.812;4.934;2022-07-19T12:20:25;4.53;;;2.50;;
15833;SDS011;8017;50.812;4.934;2022-07-19T12:23:27;2.42;;;1.67;;
15833;SDS011;8017;50.812;4.934;2022-07-19T12:26:29;7.65;;;1.80;;
15833;SDS011;8017;50.812;4.934;2022-07-19T12:29:33;4.47;;;1.85;;
15833;SDS011;8017;50.812;4.934;2022-07-19T12:32:37;7.93;;;2.13;;
15833;SDS011;8017;50.812;4.934;2022-07-19T12:35:45;6.35;;;2.13;;
15833;SDS011;8017;50.812;4.934;2022-07-19T12:38:48;4.50;;;2.03;;
15833;SDS011;8017;50.812;4.934;2022-07-19T12:41:57;4.93;;;2.05;;
15833;SDS011;8017;50.812;4.934;2022-07-19T12:45:05;7.28;;;2.10;;
15833;SDS011;8017;50.812;4.934;2022-07-19T12:48:08;5.00;;;2.20;;
15833;SDS011;8017;50.812;4.934;2022-07-19T12:51:13;3.00;;;1.63;;
15833;SDS011;8017;50.812;4.934;2022-07-19T12:54:15;5.47;;;2.13;;
15833;SDS011;8017;50.812;4.934;2022-07-19T12:57:17;6.50;;;1.98;;
15833;SDS011;8017;50.812;4.934;2022-07-19T13:00:20;5.65;;;1.98;;
15833;SDS011;8017;50.812;4.934;2022-07-19T13:03:23;4.57;;;2.10;;
15833;SDS011;8017;50.812;4.934;2022-07-19T13:06:27;5.85;;;1.80;;
15833;SDS011;8017;50.812;4.934;2022-07-19T13:09:28;5.88;;;1.98;;
15833;SDS011;8017;50.812;4.934;2022-07-19T13:12:31;4.78;;;1.67;;
15833;SDS011;8017;50.812;4.934;2022-07-19T13:15:33;2.95;;;1.73;;
15833;SDS011;8017;50.812;4.934;2022-07-19T13:18:35;5.10;;;2.00;;
15833;SDS011;8017;50.812;4.934;2022-07-19T13:21:38;8.02;;;2.17;;
15833;SDS011;8017;50.812;4.934;2022-07-19T13:24:40;4.97;;;1.63;;
15833;SDS011;8017;50.812;4.934;2022-07-19T13:27:42;5.93;;;2.13;;
15833;SDS011;8017;50.812;4.934;2022-07-19T13:30:44;4.00;;;2.03;;
15833;SDS011;8017;50.812;4.934;2022-07-19T13:33:46;5.72;;;1.92;;
15833;SDS011;8017;50.812;4.934;2022-07-19T13:36:49;4.93;;;1.75;;
15833;SDS011;8017;50.812;4.934;2022-07-19T13:39:51;4.20;;;1.70;;
15833;SDS011;8017;50.812;4.934;2022-07-19T13:42:53;4.13;;;1.60;;
15833;SDS011;8017;50.812;4.934;2022-07-19T13:45:56;2.67;;;1.52;;
15833;SDS011;8017;50.812;4.934;2022-07-19T13:48:58;7.03;;;1.63;;
15833;SDS011;8017;50.812;4.934;2022-07-19T13:52:02;4.72;;;1.65;;
15833;SDS011;8017;50.812;4.934;2022-07-19T13:55:04;2.60;;;1.63;;
15833;SDS011;8017;50.812;4.934;2022-07-19T13:58:07;2.63;;;1.60;;
15833;SDS011;8017;50.812;4.934;2022-07-19T14:01:09;5.38;;;1.75;;
15833;SDS011;8017;50.812;4.934;2022-07-19T14:04:12;4.28;;;1.48;;
15833;SDS011;8017;50.812;4.934;2022-07-19T14:07:15;4.15;;;1.55;;
15833;SDS011;8017;50.812;4.934;2022-07-19T14:10:17;2.65;;;1.60;;
15833;SDS011;8017;50.812;4.934;2022-07-19T14:13:19;3.53;;;1.65;;
15833;SDS011;8017;50.812;4.934;2022-07-19T14:16:21;3.65;;;1.55;;
15833;SDS011;8017;50.812;4.934;2022-07-19T14:19:23;6.10;;;1.75;;
15833;SDS011;8017;50.812;4.934;2022-07-19T14:22:27;3.55;;;1.70;;
15833;SDS011;8017;50.812;4.934;2022-07-19T14:25:29;2.22;;;1.48;;
15833;SDS011;8017;50.812;4.934;2022-07-19T14:28:31;1.80;;;1.10;;
15833;SDS011;8017;50.812;4.934;2022-07-19T14:31:33;2.60;;;1.23;;
15833;SDS011;8017;50.812;4.934;2022-07-19T14:34:34;3.45;;;1.50;;
15833;SDS011;8017;50.812;4.934;2022-07-19T14:37:39;5.13;;;1.55;;
15833;SDS011;8017;50.812;4.934;2022-07-19T14:40:41;3.67;;;1.52;;
15833;SDS011;8017;50.812;4.934;2022-07-19T14:43:42;1.52;;;1.25;;
15833;SDS011;8017;50.812;4.934;2022-07-19T14:46:44;5.20;;;1.38;;
15833;SDS011;8017;50.812;4.934;2022-07-19T14:49:46;3.75;;;1.67;;
15833;SDS011;8017;50.812;4.934;2022-07-19T14:52:51;3.35;;;1.42;;
15833;SDS011;8017;50.812;4.934;2022-07-19T14:55:53;3.50;;;1.40;;
15833;SDS011;8017;50.812;4.934;2022-07-19T14:58:55;2.90;;;1.45;;
15833;SDS011;8017;50.812;4.934;2022-07-19T15:01:57;2.63;;;1.40;;
15833;SDS011;8017;50.812;4.934;2022-07-19T15:04:59;3.92;;;1.77;;
15833;SDS011;8017;50.812;4.934;2022-07-19T15:08:02;4.53;;;1.45;;
15833;SDS011;8017;50.812;4.934;2022-07-19T15:11:05;1.75;;;1.48;;
15833;SDS011;8017;50.812;4.934;2022-07-19T15:14:08;4.35;;;1.20;;
15833;SDS011;8017;50.812;4.934;2022-07-19T15:17:10;3.05;;;1.35;;
15833;SDS011;8017;50.812;4.934;2022-07-19T15:20:12;3.20;;;1.40;;
15833;SDS011;8017;50.812;4.934;2022-07-19T15:23:16;4.72;;;1.60;;
15833;SDS011;8017;50.812;4.934;2022-07-19T15:26:18;2.65;;;1.50;;
15833;SDS011;8017;50.812;4.934;2022-07-19T15:29:20;2.05;;;1.40;;
15833;SDS011;8017;50.812;4.934;2022-07-19T15:32:21;3.30;;;1.33;;
15833;SDS011;8017;50.812;4.934;2022-07-19T15:35:24;4.65;;;1.60;;
15833;SDS011;8017;50.812;4.934;2022-07-19T15:38:27;5.40;;;1.20;;
15833;SDS011;8017;50.812;4.934;2022-07-19T15:41:29;1.70;;;1.20;;
15833;SDS011;8017;50.812;4.934;2022-07-19T15:44:32;3.17;;;1.20;;
15833;SDS011;8017;50.812;4.934;2022-07-19T15:47:34;6.43;;;1.10;;
15833;SDS011;8017;50.812;4.934;2022-07-19T15:50:36;2.80;;;1.20;;
15833;SDS011;8017;50.812;4.934;2022-07-19T15:53:39;4.15;;;1.42;;
15833;SDS011;8017;50.812;4.934;2022-07-19T15:56:42;2.08;;;1.20;;
15833;SDS011;8017;50.812;4.934;2022-07-19T15:59:44;2.13;;;1.17;;
15833;SDS011;8017;50.812;4.934;2022-07-19T16:02:46;3.30;;;1.40;;
15833;SDS011;8017;50.812;4.934;2022-07-19T16:05:48;2.42;;;0.98;;
15833;SDS011;8017;50.812;4.934;2022-07-19T16:08:52;3.03;;;1.00;;
15833;SDS011;8017;50.812;4.934;2022-07-19T16:11:54;5.95;;;1.38;;
15833;SDS011;8017;50.812;4.934;2022-07-19T16:14:56;1.83;;;1.23;;
15833;SDS011;8017;50.812;4.934;2022-07-19T16:17:58;3.08;;;1.25;;
15833;SDS011;8017;50.812;4.934;2022-07-19T16:21:01;3.65;;;1.30;;
15833;SDS011;8017;50.812;4.934;2022-07-19T16:24:04;2.15;;;1.10;;
15833;SDS011;8017;50.812;4.934;2022-07-19T16:27:08;3.65;;;1.52;;
15833;SDS011;8017;50.812;4.934;2022-07-19T16:30:11;4.47;;;1.00;;
15833;SDS011;8017;50.812;4.934;2022-07-19T16:33:13;3.75;;;0.98;;
15833;SDS011;8017;50.812;4.934;2022-07-19T16:36:15;1.60;;;1.20;;
15833;SDS011;8017;50.812;4.934;2022-07-19T16:39:18;3.40;;;1.35;;
15833;SDS011;8017;50.812;4.934;2022-07-19T16:42:20;2.05;;;1.15;;
15833;SDS011;8017;50.812;4.934;2022-07-19T16:45:22;5.25;;;1.65;;
15833;SDS011;8017;50.812;4.934;2022-07-19T16:48:24;2.35;;;1.20;;
15833;SDS011;8017;50.812;4.934;2022-07-19T16:51:27;2.78;;;1.42;;
15833;SDS011;8017;50.812;4.934;2022-07-19T16:54:30;3.67;;;1.40;;
15833;SDS011;8017;50.812;4.934;2022-07-19T16:57:33;2.80;;;1.50;;
15833;SDS011;8017;50.812;4.934;2022-07-19T17:00:35;4.53;;;1.10;;
15833;SDS011;8017;50.812;4.934;2022-07-19T17:03:37;4.63;;;1.38;;
15833;SDS011;8017;50.812;4.934;2022-07-19T17:06:39;2.60;;;1.17;;
15833;SDS011;8017;50.812;4.934;2022-07-19T17:09:42;1.90;;;1.23;;
15833;SDS011;8017;50.812;4.934;2022-07-19T17:12:44;2.55;;;1.27;;
15833;SDS011;8017;50.812;4.934;2022-07-19T17:15:46;2.58;;;1.50;;
15833;SDS011;8017;50.812;4.934;2022-07-19T17:18:48;2.22;;;1.30;;
15833;SDS011;8017;50.812;4.934;2022-07-19T17:21:50;4.38;;;1.55;;
15833;SDS011;8017;50.812;4.934;2022-07-19T17:24:53;5.15;;;1.38;;
15833;SDS011;8017;50.812;4.934;2022-07-19T17:27:55;1.42;;;0.90;;
15833;SDS011;8017;50.812;4.934;2022-07-19T17:30:57;1.65;;;1.25;;
15833;SDS011;8017;50.812;4.934;2022-07-19T17:33:59;2.55;;;1.15;;
15833;SDS011;8017;50.812;4.934;2022-07-19T17:37:02;3.30;;;1.45;;
15833;SDS011;8017;50.812;4.934;2022-07-19T17:40:07;6.10;;;1.50;;
15833;SDS011;8017;50.812;4.934;2022-07-19T17:43:10;5.82;;;1.52;;
15833;SDS011;8017;50.812;4.934;2022-07-19T17:46:11;2.80;;;1.35;;
15833;SDS011;8017;50.812;4.934;2022-07-19T17:49:13;2.35;;;1.50;;
15833;SDS011;8017;50.812;4.934;2022-07-19T17:52:15;4.10;;;1.27;;
15833;SDS011;8017;50.812;4.934;2022-07-19T17:55:19;3.28;;;1.10;;
15833;SDS011;8017;50.812;4.934;2022-07-19T17:58:21;3.45;;;1.27;;
15833;SDS011;8017;50.812;4.934;2022-07-19T18:01:23;3.13;;;1.58;;
15833;SDS011;8017;50.812;4.934;2022-07-19T18:04:25;3.85;;;1.60;;
15833;SDS011;8017;50.812;4.934;2022-07-19T18:07:27;4.15;;;1.40;;
15833;SDS011;8017;50.812;4.934;2022-07-19T18:10:31;3.15;;;1.30;;
15833;SDS011;8017;50.812;4.934;2022-07-19T18:13:34;1.98;;;1.30;;
15833;SDS011;8017;50.812;4.934;2022-07-19T18:16:36;4.80;;;1.10;;
15833;SDS011;8017;50.812;4.934;2022-07-19T18:19:38;3.03;;;1.50;;
15833;SDS011;8017;50.812;4.934;2022-07-19T18:22:40;1.90;;;1.10;;
15833;SDS011;8017;50.812;4.934;2022-07-19T18:25:43;2.13;;;1.40;;
15833;SDS011;8017;50.812;4.934;2022-07-19T18:28:45;2.85;;;1.50;;
15833;SDS011;8017;50.812;4.934;2022-07-19T18:31:47;3.67;;;1.42;;
15833;SDS011;8017;50.812;4.934;2022-07-19T18:34:49;3.10;;;1.50;;
15833;SDS011;8017;50.812;4.934;2022-07-19T18:37:51;1.65;;;1.45;;